Time;durP1;ratioP1;P1;durP2;ratioP2;P2;SDS_P1;SDS_P2;PMS_P1;PMS_P2;Temp;Humidity;BMP_temperature;BMP_pressure;BME280_temperature;BME280_humidity;BME280_pressure;Samples;Min_cycle;Max_cycle;Signal;HPM_P1;HPM_P2
2021/05/07 00:00:54;;;;;;;1.53;1.17;;;25.90;50.20;;;;;;4922223;29;20451;-92
2021/05/07 00:03:21;;;;;;;1.10;1.00;;;25.90;50.30;;;;;;4921540;29;20486;-94
2021/05/07 00:05:54;;;;;;;1.00;0.90;;;25.90;50.20;;;;;;4921166;29;20455;-91
2021/05/07 00:08:22;;;;;;;1.10;0.90;;;25.90;50.80;;;;;;4921905;29;20487;-94
2021/05/07 00:10:51;;;;;;;1.20;1.00;;;25.90;50.20;;;;;;4920403;29;20469;-92
2021/05/07 00:13:18;;;;;;;0.90;0.80;;;25.90;50.20;;;;;;4920496;29;21024;-91
2021/05/07 00:15:47;;;;;;;1.00;0.90;;;25.80;50.20;;;;;;4920606;29;20455;-92
2021/05/07 00:18:13;;;;;;;1.03;0.90;;;25.80;50.30;;;;;;4920873;29;20441;-91
2021/05/07 00:20:42;;;;;;;1.10;0.83;;;25.80;50.30;;;;;;4920629;29;20455;-91
2021/05/07 00:23:08;;;;;;;1.00;0.80;;;25.80;50.30;;;;;;4920780;29;20464;-92
2021/05/07 00:25:36;;;;;;;1.20;0.97;;;25.80;50.40;;;;;;4921045;29;20546;-92
2021/05/07 00:28:05;;;;;;;4.20;0.90;;;25.80;50.90;;;;;;4919842;29;20455;-92
2021/05/07 00:30:32;;;;;;;0.90;0.80;;;25.80;50.90;;;;;;4920269;29;20494;-92
2021/05/07 00:32:59;;;;;;;1.00;0.90;;;25.70;50.90;;;;;;4921121;29;20993;-92
2021/05/07 00:35:26;;;;;;;1.00;0.90;;;25.80;50.40;;;;;;4921472;29;20490;-92
2021/05/07 00:37:53;;;;;;;1.03;0.93;;;25.70;50.30;;;;;;4921765;29;20533;-93
2021/05/07 00:40:20;;;;;;;1.00;0.87;;;25.70;50.20;;;;;;4921749;29;20466;-92
2021/05/07 00:42:47;;;;;;;1.40;1.10;;;25.70;50.30;;;;;;4923122;29;20480;-92
2021/05/07 00:45:18;;;;;;;1.10;0.80;;;25.70;50.30;;;;;;4926709;29;20542;-89
2021/05/07 00:47:54;;;;;;;0.90;0.70;;;25.70;50.30;;;;;;4924074;29;20990;-92
2021/05/07 00:50:24;;;;;;;1.00;0.80;;;25.70;50.90;;;;;;4922173;29;20547;-92
2021/05/07 00:52:50;;;;;;;1.20;1.10;;;25.70;50.30;;;;;;4920200;29;20459;-91
2021/05/07 00:55:17;;;;;;;1.10;0.87;;;25.70;50.30;;;;;;4919949;29;20846;-91
2021/05/07 00:57:44;;;;;;;1.10;1.00;;;25.70;50.30;;;;;;4919553;29;20506;-94
2021/05/07 01:00:13;;;;;;;1.00;0.90;;;25.70;50.30;;;;;;4920077;29;20491;-94
2021/05/07 01:02:40;;;;;;;1.00;0.87;;;25.70;50.30;;;;;;4920268;29;20826;-94
2021/05/07 01:05:08;;;;;;;1.13;0.90;;;25.60;50.30;;;;;;4919720;29;20446;-92
2021/05/07 01:07:38;;;;;;;1.20;0.87;;;25.60;50.30;;;;;;4934965;29;20431;-93
2021/05/07 01:10:08;;;;;;;1.20;1.10;;;25.60;50.30;;;;;;4940062;29;20482;-92
2021/05/07 01:12:46;;;;;;;1.20;1.00;;;25.60;50.30;;;;;;4940755;29;20486;-92
2021/05/07 01:15:23;;;;;;;1.03;0.90;;;25.60;50.40;;;;;;4923441;29;20443;-92
2021/05/07 01:17:54;;;;;;;1.10;1.00;;;25.60;50.40;;;;;;4919963;29;20443;-92
2021/05/07 01:20:24;;;;;;;1.10;1.00;;;25.60;50.40;;;;;;4919548;29;20438;-92
2021/05/07 01:22:52;;;;;;;1.00;0.87;;;25.60;50.40;;;;;;4919800;29;20436;-91
2021/05/07 01:25:23;;;;;;;1.33;0.93;;;25.60;50.50;;;;;;4919227;29;20863;-91
2021/05/07 01:27:53;;;;;;;1.10;1.00;;;25.60;50.40;;;;;;4920052;29;20546;-93
2021/05/07 01:30:22;;;;;;;1.10;0.80;;;25.60;50.50;;;;;;4919030;29;20522;-92
2021/05/07 01:32:51;;;;;;;1.43;1.10;;;25.50;50.40;;;;;;4918707;29;20836;-92
2021/05/07 01:35:22;;;;;;;1.13;1.03;;;25.60;50.50;;;;;;4919171;29;20824;-92
2021/05/07 01:37:51;;;;;;;1.17;1.07;;;25.50;50.40;;;;;;4919963;29;20486;-91
2021/05/07 01:40:20;;;;;;;1.00;0.90;;;25.70;50.50;;;;;;4919070;29;20467;-91
2021/05/07 01:42:51;;;;;;;1.67;0.90;;;25.50;50.40;;;;;;4918833;29;20539;-94
2021/05/07 01:45:20;;;;;;;1.20;1.00;;;25.70;50.50;;;;;;4929256;29;20510;-94
2021/05/07 01:47:47;;;;;;;1.07;0.87;;;25.50;50.40;;;;;;4937939;29;20455;-94
2021/05/07 01:50:17;;;;;;;1.00;0.90;;;25.50;50.40;;;;;;4940579;29;20463;-92
2021/05/07 01:52:44;;;;;;;1.00;0.90;;;25.50;50.40;;;;;;4940915;29;20451;-92
2021/05/07 01:55:13;;;;;;;1.20;1.00;;;25.50;50.50;;;;;;4941754;29;20432;-94
2021/05/07 01:57:42;;;;;;;1.00;0.90;;;25.50;50.40;;;;;;4941766;29;20443;-93
2021/05/07 02:00:13;;;;;;;1.10;1.00;;;25.60;50.50;;;;;;4942072;29;20439;-93
2021/05/07 02:02:41;;;;;;;1.50;1.10;;;25.60;50.50;;;;;;4941344;29;20455;-94
2021/05/07 02:05:10;;;;;;;1.40;1.30;;;25.60;50.40;;;;;;4941111;29;20445;-92
2021/05/07 02:07:44;;;;;;;1.00;0.80;;;25.60;50.50;;;;;;4941562;29;20453;-92
2021/05/07 02:10:14;;;;;;;1.20;1.10;;;25.60;50.50;;;;;;4941828;29;20480;-93
2021/05/07 02:12:42;;;;;;;1.40;1.30;;;25.60;50.40;;;;;;4941672;29;20435;-92
2021/05/07 02:15:16;;;;;;;1.10;0.90;;;25.60;50.40;;;;;;4941561;29;20459;-92
2021/05/07 02:17:43;;;;;;;1.20;1.10;;;25.60;50.40;;;;;;4941238;29;20432;-93
2021/05/07 02:20:14;;;;;;;1.30;1.20;;;25.60;50.40;;;;;;4941469;29;20458;-90
2021/05/07 02:22:41;;;;;;;1.10;1.00;;;25.60;50.40;;;;;;4941842;29;20438;-92
2021/05/07 02:25:13;;;;;;;1.10;1.00;;;25.60;50.50;;;;;;4933869;29;20453;-91
2021/05/07 02:27:40;;;;;;;1.17;1.07;;;25.60;50.40;;;;;;4918303;29;21041;-94
2021/05/07 02:30:14;;;;;;;1.13;1.03;;;25.70;50.50;;;;;;4918150;29;20893;-91
2021/05/07 02:32:45;;;;;;;1.10;0.87;;;25.70;50.40;;;;;;4918368;29;20470;-93
2021/05/07 02:35:12;;;;;;;1.40;1.30;;;25.60;50.40;;;;;;4918816;29;20486;-93
2021/05/07 02:37:39;;;;;;;1.20;1.10;;;25.40;50.30;;;;;;4919103;29;20462;-94
2021/05/07 02:40:08;;;;;;;1.10;1.00;;;25.60;50.40;;;;;;4918131;29;20455;-94
2021/05/07 02:42:36;;;;;;;1.10;1.00;;;25.60;50.40;;;;;;4918785;29;20469;-91
2021/05/07 02:45:04;;;;;;;1.30;1.20;;;25.60;50.40;;;;;;4918615;29;20461;-94
2021/05/07 02:47:38;;;;;;;1.20;1.10;;;25.60;50.40;;;;;;4918882;29;20510;-93
2021/05/07 02:50:12;;;;;;;1.27;1.17;;;25.60;50.40;;;;;;4918244;29;20570;-93
2021/05/07 02:52:43;;;;;;;1.20;1.10;;;25.60;50.40;;;;;;4919218;29;20537;-93
2021/05/07 02:55:10;;;;;;;1.00;0.90;;;25.60;50.40;;;;;;4918201;29;20553;-91
2021/05/07 02:57:53;;;;;;;1.17;1.07;;;25.60;50.50;;;;;;4918479;29;20958;-91
2021/05/07 03:00:21;;;;;;;1.17;1.07;;;25.60;50.40;;;;;;4918459;29;20450;-91
2021/05/07 03:02:54;;;;;;;1.10;0.90;;;25.60;50.40;;;;;;4919659;29;20897;-91
2021/05/07 03:05:25;;;;;;;1.20;1.03;;;25.70;50.50;;;;;;4918947;29;20462;-91
2021/05/07 03:07:57;;;;;;;1.23;1.07;;;25.50;50.40;;;;;;4918808;29;20465;-91
2021/05/07 03:10:29;;;;;;;1.30;1.20;;;25.60;50.50;;;;;;4918707;29;20510;-93
2021/05/07 03:13:08;;;;;;;1.10;1.00;;;25.60;50.40;;;;;;4918947;29;20451;-94
2021/05/07 03:15:41;;;;;;;1.20;1.00;;;25.50;50.30;;;;;;4919200;29;20478;-91
2021/05/07 03:18:13;;;;;;;1.10;1.00;;;25.70;50.50;;;;;;4921957;29;20487;-93
2021/05/07 03:20:42;;;;;;;1.70;1.20;;;25.70;50.40;;;;;;4922471;29;20471;-93
2021/05/07 03:23:08;;;;;;;2.17;1.53;;;25.60;50.40;;;;;;4922823;29;20463;-93
2021/05/07 03:25:35;;;;;;;1.20;1.10;;;25.60;50.40;;;;;;4925884;29;20460;-93
2021/05/07 03:28:05;;;;;;;1.10;1.00;;;25.60;50.40;;;;;;4945159;29;20435;-91
2021/05/07 03:30:33;;;;;;;1.13;1.03;;;25.70;50.50;;;;;;4944826;29;20478;-94
2021/05/07 03:33:02;;;;;;;1.30;1.20;;;25.60;50.40;;;;;;4942434;29;20466;-93
2021/05/07 03:35:28;;;;;;;1.00;0.90;;;25.70;50.40;;;;;;4925362;29;20447;-93
2021/05/07 03:37:55;;;;;;;1.40;1.30;;;25.60;50.50;;;;;;4925130;29;20451;-93
2021/05/07 03:40:24;;;;;;;1.00;0.90;;;25.60;50.40;;;;;;4924909;29;21149;-93
2021/05/07 03:42:51;;;;;;;1.30;1.20;;;25.60;50.50;;;;;;4922735;29;20480;-93
2021/05/07 03:45:19;;;;;;;1.20;1.00;;;25.60;50.50;;;;;;4923328;29;20456;-93
2021/05/07 03:47:46;;;;;;;1.23;1.10;;;25.60;50.40;;;;;;4922856;29;20458;-94
2021/05/07 03:50:13;;;;;;;1.20;1.10;;;25.60;50.40;;;;;;4922644;29;20494;-93
2021/05/07 03:52:41;;;;;;;1.57;0.97;;;25.60;50.40;;;;;;4922790;29;20459;-93
2021/05/07 03:55:09;;;;;;;1.50;1.40;;;25.60;50.50;;;;;;4923340;29;21117;-93
2021/05/07 03:57:36;;;;;;;1.03;0.93;;;25.60;50.40;;;;;;4923024;29;20464;-94
2021/05/07 04:00:04;;;;;;;1.30;1.20;;;25.60;50.40;;;;;;4924746;29;20458;-91
2021/05/07 04:02:32;;;;;;;1.30;1.20;;;25.60;50.40;;;;;;4926577;29;20486;-91
2021/05/07 04:05:00;;;;;;;1.07;0.97;;;25.60;50.40;;;;;;4924275;29;20455;-92
2021/05/07 04:07:28;;;;;;;1.20;1.10;;;25.40;50.20;;;;;;4921855;29;20468;-94
2021/05/07 04:10:01;;;;;;;1.20;1.07;;;25.60;50.40;;;;;;4920564;29;20491;-93
2021/05/07 04:15:13;;;;;;;1.10;1.00;;;25.60;50.30;;;;;;4920741;29;20433;-93
2021/05/07 04:17:40;;;;;;;1.30;1.10;;;25.60;50.30;;;;;;4920367;29;20440;-93
2021/05/07 04:20:09;;;;;;;1.10;0.90;;;25.60;50.30;;;;;;4921211;29;20493;-93
2021/05/07 04:22:36;;;;;;;1.17;1.07;;;25.60;50.30;;;;;;4921177;29;20463;-92
2021/05/07 04:25:03;;;;;;;1.20;1.10;;;25.60;50.30;;;;;;4920829;29;20452;-93
2021/05/07 04:27:33;;;;;;;1.27;1.17;;;25.60;50.30;;;;;;4919933;29;20462;-93
2021/05/07 04:29:59;;;;;;;1.20;1.10;;;25.60;50.30;;;;;;4919774;29;20524;-93
2021/05/07 04:32:27;;;;;;;1.40;1.10;;;25.70;50.30;;;;;;4920208;29;20844;-93
2021/05/07 04:34:57;;;;;;;1.20;1.10;;;25.70;50.40;;;;;;4920676;29;21024;-93
2021/05/07 04:37:23;;;;;;;1.10;0.83;;;25.70;50.40;;;;;;4920461;29;20483;-93
2021/05/07 04:39:50;;;;;;;1.00;0.90;;;25.70;50.30;;;;;;4920288;29;20554;-91
2021/05/07 04:42:16;;;;;;;1.53;1.20;;;25.70;50.30;;;;;;4919944;29;20494;-91
2021/05/07 04:44:45;;;;;;;1.30;1.20;;;25.70;50.30;;;;;;4920621;29;20467;-94
2021/05/07 04:47:12;;;;;;;1.10;1.00;;;25.60;50.90;;;;;;4920011;29;20447;-91
2021/05/07 04:49:38;;;;;;;1.10;1.00;;;25.50;50.20;;;;;;4920238;29;21049;-93
2021/05/07 04:52:07;;;;;;;1.20;1.10;;;25.60;50.90;;;;;;4919744;29;20490;-93
2021/05/07 04:54:34;;;;;;;1.07;0.97;;;25.70;50.40;;;;;;4903182;29;20457;-93
2021/05/07 04:57:03;;;;;;;1.10;0.90;;;25.60;50.40;;;;;;4919954;29;20460;-92
2021/05/07 04:59:30;;;;;;;1.50;1.10;;;25.60;50.40;;;;;;4921127;29;20460;-93
2021/05/07 05:02:01;;;;;;;1.37;1.27;;;25.60;50.40;;;;;;4919906;29;20459;-92
2021/05/07 05:04:27;;;;;;;1.20;1.10;;;25.60;50.40;;;;;;4919815;29;20506;-92
2021/05/07 05:07:07;;;;;;;1.10;1.00;;;25.60;50.40;;;;;;4919376;29;20970;-93
2021/05/07 05:09:37;;;;;;;1.10;0.90;;;25.60;50.50;;;;;;4920126;29;21018;-93
2021/05/07 05:12:05;;;;;;;1.30;1.20;;;25.60;50.60;;;;;;4919728;29;20461;-93
2021/05/07 05:14:32;;;;;;;1.23;1.10;;;25.60;50.60;;;;;;4919386;29;20549;-92
2021/05/07 05:16:59;;;;;;;1.20;1.10;;;25.60;50.50;;;;;;4919216;29;20485;-94
2021/05/07 05:19:25;;;;;;;1.10;1.00;;;25.60;50.50;;;;;;4918820;29;20506;-93
2021/05/07 05:21:54;;;;;;;1.10;1.00;;;25.60;50.50;;;;;;4919424;29;20541;-93
2021/05/07 05:24:20;;;;;;;4.30;1.10;;;25.60;50.60;;;;;;4919346;29;20447;-93
2021/05/07 05:26:48;;;;;;;1.20;1.10;;;25.50;50.60;;;;;;4919480;29;20873;-93
2021/05/07 05:29:15;;;;;;;1.43;1.10;;;25.60;50.60;;;;;;4919141;29;20485;-93
2021/05/07 05:31:41;;;;;;;1.27;1.10;;;25.50;50.60;;;;;;4918714;29;20458;-91
2021/05/07 05:34:08;;;;;;;1.23;1.10;;;25.60;50.60;;;;;;4918765;29;20502;-91
2021/05/07 05:36:34;;;;;;;1.23;1.13;;;25.60;50.60;;;;;;4919664;29;20549;-91
2021/05/07 05:39:01;;;;;;;1.63;1.30;;;25.60;50.60;;;;;;4919945;29;20542;-92
2021/05/07 05:41:27;;;;;;;1.10;1.00;;;25.60;50.50;;;;;;4919703;29;20493;-92
2021/05/07 05:43:55;;;;;;;1.20;1.10;;;25.60;50.60;;;;;;4919049;29;20487;-91
2021/05/07 05:46:21;;;;;;;1.23;1.13;;;25.60;50.50;;;;;;4918929;29;20486;-91
2021/05/07 05:48:47;;;;;;;1.20;1.00;;;25.60;50.50;;;;;;4919245;29;20619;-90
2021/05/07 05:51:14;;;;;;;1.30;1.20;;;25.70;50.60;;;;;;4918568;29;20486;-90
2021/05/07 05:53:40;;;;;;;1.10;0.90;;;25.60;50.60;;;;;;4928149;29;20481;-90
2021/05/07 05:56:06;;;;;;;1.00;0.90;;;25.70;50.70;;;;;;4923688;29;20542;-90
2021/05/07 05:58:36;;;;;;;1.30;1.20;;;25.70;50.80;;;;;;4902218;29;20526;-89
2021/05/07 06:01:03;;;;;;;1.20;1.10;;;25.70;50.70;;;;;;4902184;29;20464;-89
2021/05/07 06:03:29;;;;;;;1.50;1.37;;;25.70;50.80;;;;;;4918450;29;20473;-90
2021/05/07 06:05:56;;;;;;;1.20;1.07;;;25.70;50.80;;;;;;4919209;29;20931;-90
2021/05/07 06:08:23;;;;;;;1.50;1.40;;;25.70;50.80;;;;;;4918319;29;20569;-91
2021/05/07 06:10:49;;;;;;;1.50;1.40;;;25.70;50.80;;;;;;4919701;29;20494;-91
2021/05/07 06:13:15;;;;;;;1.90;1.50;;;25.70;50.90;;;;;;4918527;29;20455;-90
2021/05/07 06:15:42;;;;;;;3.13;1.37;;;25.70;50.90;;;;;;4918087;29;20482;-91
2021/05/07 06:18:09;;;;;;;1.60;1.40;;;25.70;50.80;;;;;;4918844;29;20451;-91
2021/05/07 06:20:35;;;;;;;1.67;1.57;;;25.70;51.00;;;;;;4918540;29;20502;-91
2021/05/07 06:23:02;;;;;;;2.00;1.80;;;25.70;51.10;;;;;;4918466;29;20817;-91
2021/05/07 06:25:29;;;;;;;1.57;1.47;;;25.70;51.10;;;;;;4918079;29;20461;-92
2021/05/07 06:27:56;;;;;;;1.93;1.80;;;25.70;51.10;;;;;;4918100;29;20459;-89
2021/05/07 06:30:22;;;;;;;1.40;1.30;;;25.70;51.20;;;;;;4917745;29;20497;-90
2021/05/07 06:32:49;;;;;;;1.50;1.40;;;25.70;51.40;;;;;;4918273;29;20466;-91
2021/05/07 06:35:16;;;;;;;1.37;1.27;;;25.70;51.50;;;;;;4918042;29;20459;-90
2021/05/07 06:37:43;;;;;;;1.40;1.30;;;25.70;51.50;;;;;;4918029;29;20539;-90
2021/05/07 06:40:10;;;;;;;1.47;1.37;;;25.70;51.60;;;;;;4918180;29;20541;-93
2021/05/07 06:42:38;;;;;;;1.33;1.23;;;25.70;51.60;;;;;;4918605;29;20452;-90
2021/05/07 06:45:05;;;;;;;1.30;1.20;;;25.70;51.50;;;;;;4917661;29;20447;-90
2021/05/07 06:47:32;;;;;;;1.40;1.20;;;25.80;51.40;;;;;;4917577;29;20577;-91
2021/05/07 06:49:58;;;;;;;1.40;1.13;;;25.70;51.50;;;;;;4917143;29;20501;-88
2021/05/07 06:52:25;;;;;;;1.40;1.20;;;25.80;51.50;;;;;;4921029;29;20451;-91
2021/05/07 06:54:52;;;;;;;1.43;1.30;;;25.80;51.60;;;;;;4921619;29;20447;-88
2021/05/07 06:57:18;;;;;;;1.17;1.07;;;25.80;51.50;;;;;;4922829;29;20542;-88
2021/05/07 06:59:47;;;;;;;2.23;1.20;;;25.80;51.20;;;;;;4922198;29;20452;-88
2021/05/07 07:02:14;;;;;;;1.53;1.43;;;25.90;51.60;;;;;;4922868;29;20547;-91
2021/05/07 07:04:53;;;;;;;1.20;1.10;;;25.70;51.40;;;;;;4953524;23;20488;-96
2021/05/07 07:07:19;;;;;;;2.23;0.90;;;25.80;50.60;;;;;;4965208;29;20533;-95
2021/05/07 07:09:46;;;;;;;1.30;1.07;;;25.80;49.30;;;;;;4963529;29;20526;-90
2021/05/07 07:12:13;;;;;;;1.50;1.00;;;25.80;49.40;;;;;;4965627;29;20547;-90
2021/05/07 07:14:40;;;;;;;1.07;0.90;;;25.80;49.50;;;;;;4964737;29;20452;-92
2021/05/07 07:17:07;;;;;;;1.20;1.10;;;25.80;49.50;;;;;;4963366;29;21005;-91
2021/05/07 07:19:33;;;;;;;2.90;1.20;;;25.80;49.60;;;;;;4960417;29;20449;-90
2021/05/07 07:22:00;;;;;;;2.10;1.10;;;25.80;49.70;;;;;;4960016;29;20940;-93
2021/05/07 07:24:26;;;;;;;1.10;1.00;;;25.80;50.00;;;;;;4944354;29;20445;-95
2021/05/07 07:26:54;;;;;;;2.13;1.10;;;25.80;50.80;;;;;;4960501;29;20449;-92
2021/05/07 07:29:20;;;;;;;1.20;1.10;;;25.80;50.80;;;;;;4960635;29;20888;-95
2021/05/07 07:31:46;;;;;;;3.30;1.03;;;25.80;51.00;;;;;;4961102;29;20948;-94
2021/05/07 07:34:13;;;;;;;1.20;1.10;;;25.80;50.90;;;;;;4960348;29;20543;-95
2021/05/07 07:36:41;;;;;;;1.63;1.17;;;25.80;50.90;;;;;;4958428;29;20467;-87
2021/05/07 07:39:08;;;;;;;1.00;0.90;;;25.80;51.00;;;;;;4959361;29;20438;-88
2021/05/07 07:41:34;;;;;;;1.20;1.10;;;25.80;51.00;;;;;;4958889;29;20446;-88
2021/05/07 07:44:02;;;;;;;2.50;1.30;;;25.80;50.20;;;;;;4958931;29;20470;-94
2021/05/07 07:46:30;;;;;;;2.07;1.10;;;25.80;50.40;;;;;;4945081;29;20448;-88
2021/05/07 07:48:57;;;;;;;2.77;1.40;;;25.80;50.70;;;;;;4958773;29;20453;-91
2021/05/07 07:51:28;;;;;;;2.07;1.43;;;25.80;50.70;;;;;;4960040;29;20978;-94
2021/05/07 07:53:55;;;;;;;1.97;1.17;;;25.80;50.60;;;;;;4959154;29;20446;-94
2021/05/07 07:56:22;;;;;;;2.83;1.43;;;25.80;50.50;;;;;;4958695;29;20564;-85
2021/05/07 07:58:48;;;;;;;1.10;0.80;;;25.80;50.20;;;;;;4957785;29;20449;-85
2021/05/07 08:01:15;;;;;;;1.40;1.20;;;25.80;50.00;;;;;;4958373;29;20464;-85
2021/05/07 08:03:41;;;;;;;2.83;1.50;;;25.90;50.10;;;;;;4957805;28;20464;-85
2021/05/07 08:06:08;;;;;;;1.43;1.10;;;25.90;50.00;;;;;;4957682;29;20482;-84
2021/05/07 08:08:34;;;;;;;4.50;1.00;;;25.90;50.60;;;;;;4958098;29;20442;-87
2021/05/07 08:11:00;;;;;;;1.30;1.10;;;25.90;50.00;;;;;;4953282;29;20490;-88
2021/05/07 08:13:27;;;;;;;5.63;1.17;;;25.90;50.00;;;;;;4954761;29;20934;-87
2021/05/07 08:15:53;;;;;;;1.03;0.90;;;25.90;50.10;;;;;;4975505;29;20458;-87
2021/05/07 08:18:21;;;;;;;1.47;1.00;;;26.00;50.10;;;;;;4968774;29;20429;-88
2021/05/07 08:20:47;;;;;;;1.00;0.90;;;26.00;50.10;;;;;;4967437;29;20467;-87
2021/05/07 08:23:13;;;;;;;1.77;0.90;;;26.00;50.10;;;;;;4959752;29;20509;-88
2021/05/07 08:25:40;;;;;;;2.53;1.20;;;26.00;50.10;;;;;;4960988;29;20450;-89
2021/05/07 08:28:06;;;;;;;3.00;1.10;;;26.00;50.20;;;;;;4959279;29;20960;-89
2021/05/07 08:30:33;;;;;;;1.20;0.80;;;26.10;50.20;;;;;;4958312;29;20584;-90
2021/05/07 08:32:59;;;;;;;1.77;1.00;;;26.10;50.20;;;;;;4958739;29;20501;-87
2021/05/07 08:35:26;;;;;;;4.73;1.40;;;26.10;50.20;;;;;;4958253;29;20453;-84
2021/05/07 08:37:54;;;;;;;1.10;1.00;;;26.20;49.90;;;;;;4958534;29;20449;-90
2021/05/07 08:40:20;;;;;;;3.17;1.43;;;26.00;49.70;;;;;;4958203;29;20456;-90
2021/05/07 08:42:47;;;;;;;1.67;1.27;;;26.00;50.40;;;;;;4958195;29;20453;-91
2021/05/07 08:45:16;;;;;;;6.50;1.07;;;26.00;50.70;;;;;;4957968;29;20464;-91
2021/05/07 08:47:44;;;;;;;1.53;0.80;;;26.00;50.80;;;;;;4958790;29;20457;-83
2021/05/07 08:50:11;;;;;;;2.17;1.20;;;26.00;50.90;;;;;;4958398;29;20496;-90
2021/05/07 08:52:38;;;;;;;1.33;1.10;;;26.10;50.40;;;;;;4958016;29;20454;-90
2021/05/07 08:55:06;;;;;;;1.60;1.03;;;26.20;50.60;;;;;;4958274;29;20492;-90
2021/05/07 08:57:33;;;;;;;2.17;1.30;;;26.20;50.60;;;;;;4958241;29;20453;-90
2021/05/07 08:59:59;;;;;;;2.90;1.00;;;26.20;50.60;;;;;;4957585;29;20482;-84
2021/05/07 09:05:32;;;;;;;3.60;1.30;;;26.30;49.40;;;;;;4949012;29;20471;-93
2021/05/07 09:08:04;;;;;;;3.77;1.00;;;26.20;49.50;;;;;;4957977;29;20445;-93
2021/05/07 09:10:39;;;;;;;1.40;1.23;;;26.20;50.80;;;;;;4958671;29;20569;-93
2021/05/07 09:13:08;;;;;;;3.13;1.07;;;26.10;51.00;;;;;;4962320;29;20449;-93
2021/05/07 09:15:53;;;;;;;1.57;0.80;;;26.20;51.10;;;;;;4957133;28;20453;-94
2021/05/07 09:18:19;;;;;;;1.23;1.00;;;26.20;51.30;;;;;;4958953;29;20913;-93
2021/05/07 09:20:54;;;;;;;1.20;1.10;;;26.20;51.40;;;;;;4957912;29;20450;-93
2021/05/07 09:23:41;;;;;;;4.23;1.27;;;26.20;51.50;;;;;;4958887;29;20440;-93
2021/05/07 09:26:15;;;;;;;2.30;1.00;;;26.30;51.10;;;;;;4940729;29;20504;-91
2021/05/07 09:29:15;;;;;;;2.63;1.70;;;26.40;50.70;;;;;;4951179;29;20442;-91
2021/05/07 09:31:45;;;;;;;32.53;18.97;;;26.30;50.50;;;;;;4919987;29;20446;-91
2021/05/07 09:34:14;;;;;;;40.50;28.97;;;26.40;50.90;;;;;;4957222;29;20791;-91
2021/05/07 09:36:40;;;;;;;89.90;58.53;;;26.40;50.20;;;;;;4957507;29;20454;-91
2021/05/07 09:39:12;;;;;;;103.27;65.03;;;26.50;50.70;;;;;;4957709;29;20541;-90
2021/05/07 09:41:43;;;;;;;133.43;79.90;;;26.50;50.60;;;;;;4956775;29;20541;-91
2021/05/07 09:44:15;;;;;;;126.00;71.87;;;26.40;50.80;;;;;;4957441;29;20538;-91
2021/05/07 09:46:49;;;;;;;108.90;61.57;;;26.40;51.30;;;;;;4957863;29;20871;-92
2021/05/07 09:49:29;;;;;;;94.53;57.97;;;26.40;51.50;;;;;;4958528;29;20486;-93
2021/05/07 09:52:01;;;;;;;66.47;44.13;;;26.50;51.50;;;;;;4958283;29;20450;-92
2021/05/07 09:54:31;;;;;;;80.17;47.00;;;26.50;51.30;;;;;;4959158;29;20461;-95
2021/05/07 09:56:59;;;;;;;54.77;34.03;;;26.50;51.20;;;;;;4957943;29;20447;-90
2021/05/07 09:59:26;;;;;;;47.70;35.20;;;26.50;51.10;;;;;;4956834;29;20477;-89
2021/05/07 10:01:52;;;;;;;52.27;31.93;;;26.50;50.40;;;;;;4956198;29;20834;-91
2021/05/07 10:04:18;;;;;;;42.73;26.30;;;26.50;50.20;;;;;;4956270;28;20549;-91
2021/05/07 10:06:45;;;;;;;33.80;23.67;;;26.50;50.20;;;;;;4956618;29;20458;-90
2021/05/07 10:09:21;;;;;;;31.73;21.20;;;26.50;50.10;;;;;;4956451;29;22348;-92
2021/05/07 10:11:50;;;;;;;28.60;15.63;;;26.50;49.60;;;;;;4957649;29;20441;-92
2021/05/07 10:14:18;;;;;;;13.93;9.37;;;26.50;48.70;;;;;;4956757;29;20445;-91
2021/05/07 10:16:44;;;;;;;16.43;8.30;;;26.50;45.80;;;;;;4956723;29;20802;-91
2021/05/07 10:19:12;;;;;;;10.67;5.27;;;26.40;44.70;;;;;;4957748;29;20450;-91
2021/05/07 10:21:40;;;;;;;12.40;8.00;;;26.20;44.20;;;;;;4959595;29;20534;-91
2021/05/07 10:24:08;;;;;;;12.10;8.17;;;26.00;44.50;;;;;;4959906;29;20457;-91
2021/05/07 10:26:37;;;;;;;11.17;8.07;;;25.80;44.50;;;;;;4963541;28;20461;-91
2021/05/07 10:29:16;;;;;;;7.20;5.80;;;25.70;44.20;;;;;;4958979;29;20453;-92
2021/05/07 10:31:47;;;;;;;9.90;6.63;;;25.60;44.20;;;;;;4959464;29;20439;-92
2021/05/07 10:34:14;;;;;;;10.13;6.13;;;25.50;45.50;;;;;;4955941;29;20473;-92
2021/05/07 10:36:42;;;;;;;9.50;6.63;;;25.50;46.80;;;;;;4956090;29;20525;-91
2021/05/07 10:39:20;;;;;;;12.27;6.63;;;25.60;47.60;;;;;;4958050;29;20800;-92
2021/05/07 10:41:47;;;;;;;8.67;6.30;;;25.80;47.90;;;;;;4959535;29;20462;-92
2021/05/07 10:44:15;;;;;;;9.93;6.93;;;25.80;48.00;;;;;;4950172;28;20454;-91
2021/05/07 10:46:42;;;;;;;9.00;6.50;;;25.90;48.10;;;;;;4957679;29;20441;-91
2021/05/07 10:49:09;;;;;;;10.53;4.87;;;26.00;48.30;;;;;;4956071;29;20452;-92
2021/05/07 10:51:35;;;;;;;4.73;3.90;;;26.10;48.50;;;;;;4956231;29;20460;-92
2021/05/07 10:54:10;;;;;;;5.03;4.30;;;26.10;48.40;;;;;;4955953;29;20445;-93
2021/05/07 10:56:40;;;;;;;5.27;4.10;;;26.20;48.50;;;;;;4955678;29;20767;-92
2021/05/07 10:59:18;;;;;;;4.60;3.70;;;26.20;48.40;;;;;;4955691;29;20857;-92
2021/05/07 11:01:56;;;;;;;4.70;3.80;;;26.30;48.50;;;;;;4955449;29;20464;-92
2021/05/07 11:04:23;;;;;;;5.13;4.13;;;26.30;48.50;;;;;;4955794;28;20839;-92
2021/05/07 11:07:00;;;;;;;5.73;3.60;;;26.30;48.50;;;;;;4956029;29;20845;-92
2021/05/07 11:09:27;;;;;;;4.53;3.93;;;26.30;48.60;;;;;;4955603;29;20847;-92
2021/05/07 11:11:56;;;;;;;4.57;3.70;;;26.30;48.80;;;;;;4956217;29;20855;-92
2021/05/07 11:14:25;;;;;;;4.00;3.47;;;26.40;48.90;;;;;;4939790;29;20450;-92
2021/05/07 11:16:52;;;;;;;3.47;3.00;;;26.40;48.70;;;;;;4955899;29;20449;-89
2021/05/07 11:19:30;;;;;;;8.40;3.80;;;26.40;48.90;;;;;;4955691;29;20493;-92
2021/05/07 11:21:59;;;;;;;5.10;3.40;;;26.50;49.00;;;;;;4955669;29;20434;-90
2021/05/07 11:24:26;;;;;;;4.00;3.40;;;26.50;49.00;;;;;;4955607;29;20442;-89
2021/05/07 11:26:53;;;;;;;3.87;2.73;;;26.50;49.00;;;;;;4955124;29;20518;-88
2021/05/07 11:29:28;;;;;;;3.07;2.77;;;26.50;48.80;;;;;;4954871;29;20494;-86
2021/05/07 11:31:55;;;;;;;2.93;2.30;;;26.50;47.70;;;;;;4955280;29;20463;-81
2021/05/07 11:34:25;;;;;;;4.90;2.33;;;26.50;47.50;;;;;;4955372;29;20442;-85
2021/05/07 11:36:58;;;;;;;2.63;2.40;;;26.40;47.70;;;;;;4954822;28;20545;-83
2021/05/07 11:39:24;;;;;;;3.30;2.23;;;26.40;48.00;;;;;;4958271;29;20964;-87
2021/05/07 11:41:51;;;;;;;4.70;2.60;;;26.40;48.20;;;;;;4958868;29;20476;-86
2021/05/07 11:44:17;;;;;;;2.90;1.97;;;26.60;48.40;;;;;;4958545;29;20846;-85
2021/05/07 11:46:55;;;;;;;2.23;1.90;;;26.40;48.30;;;;;;4958601;29;20446;-85
2021/05/07 11:49:22;;;;;;;3.10;2.53;;;26.50;48.30;;;;;;4958565;29;20482;-86
2021/05/07 11:51:48;;;;;;;2.17;1.90;;;26.50;48.30;;;;;;4959016;29;20442;-85
2021/05/07 11:54:15;;;;;;;2.40;1.60;;;26.50;48.40;;;;;;4958317;29;20548;-85
2021/05/07 11:56:41;;;;;;;2.60;2.23;;;26.50;48.70;;;;;;4958195;29;20509;-85
2021/05/07 11:59:08;;;;;;;1.97;1.60;;;26.50;48.60;;;;;;4958476;29;20452;-83
2021/05/07 12:01:35;;;;;;;2.03;1.80;;;26.50;48.40;;;;;;4958370;29;20454;-85
2021/05/07 12:04:05;;;;;;;1.87;1.33;;;26.50;46.10;;;;;;4958164;29;20886;-87
2021/05/07 12:06:31;;;;;;;5.73;1.60;;;26.40;44.10;;;;;;4957901;29;20473;-87
2021/05/07 12:09:08;;;;;;;3.40;1.17;;;26.30;43.60;;;;;;4958437;29;20541;-89
2021/05/07 12:11:35;;;;;;;2.07;1.70;;;26.20;44.50;;;;;;4958428;29;20485;-87
2021/05/07 12:14:12;;;;;;;4.13;1.40;;;26.20;46.50;;;;;;4958983;29;20457;-89
2021/05/07 12:16:39;;;;;;;3.70;1.77;;;26.20;46.50;;;;;;4957693;29;20453;-90
2021/05/07 12:19:07;;;;;;;3.00;1.40;;;26.30;46.90;;;;;;4958482;29;20454;-89
2021/05/07 12:21:40;;;;;;;3.57;1.50;;;26.40;47.70;;;;;;4958337;29;20837;-89
2021/05/07 12:24:10;;;;;;;2.90;1.30;;;26.40;47.10;;;;;;4958750;29;20883;-90
2021/05/07 12:26:47;;;;;;;5.13;1.40;;;26.40;47.30;;;;;;4958151;29;20474;-87
2021/05/07 12:29:13;;;;;;;1.53;1.27;;;26.50;48.10;;;;;;4958902;29;20807;-87
2021/05/07 12:31:39;;;;;;;1.33;1.10;;;26.60;47.60;;;;;;4957807;29;20465;-88
2021/05/07 12:34:17;;;;;;;1.10;0.90;;;26.70;47.60;;;;;;4958194;29;20450;-88
2021/05/07 12:36:44;;;;;;;3.10;1.30;;;26.70;47.60;;;;;;4957901;29;20454;-88
2021/05/07 12:39:13;;;;;;;5.23;1.20;;;26.70;47.00;;;;;;4963909;29;20454;-91
2021/05/07 12:41:39;;;;;;;1.90;1.40;;;26.70;47.60;;;;;;4964793;29;20450;-88
2021/05/07 12:44:13;;;;;;;1.10;1.00;;;26.60;47.80;;;;;;4957633;29;20446;-88
2021/05/07 12:46:39;;;;;;;2.47;1.10;;;26.70;46.00;;;;;;4958174;29;20457;-89
2021/05/07 12:49:05;;;;;;;3.20;1.40;;;26.80;46.80;;;;;;4956925;28;20924;-90
2021/05/07 12:51:32;;;;;;;1.93;1.37;;;26.80;45.50;;;;;;4958214;29;20481;-90
2021/05/07 12:53:59;;;;;;;2.83;1.40;;;26.80;44.70;;;;;;4960180;29;20443;-90
2021/05/07 12:56:26;;;;;;;1.70;1.00;;;26.70;46.70;;;;;;4969636;29;20458;-88
2021/05/07 12:58:53;;;;;;;1.40;1.10;;;26.60;46.70;;;;;;4976513;28;20529;-88